createdAt,value
2016-08-01T07:42:00.486Z,23584
2016-08-01T07:42:54.750Z,22272
2016-08-01T07:43:54.801Z,21728
2016-08-01T07:44:54.865Z,19808
2016-08-01T07:45:55.073Z,20800
2016-08-01T07:46:54.253Z,18464
2016-08-01T07:47:54.969Z,19040
2016-08-01T07:48:55.019Z,19488
2016-08-01T07:50:55.127Z,21248
2016-08-01T07:51:55.160Z,20768
2016-08-01T07:52:55.234Z,21408
2016-08-01T07:53:54.578Z,23680
2016-08-01T07:54:55.298Z,27456
2016-08-01T07:55:55.358Z,27712
2016-08-01T07:56:54.716Z,28032
2016-08-01T07:57:55.494Z,31168
2016-08-01T07:58:55.481Z,32160
2016-08-01T07:59:55.517Z,33248
2016-08-01T08:00:54.894Z,33408
2016-08-01T08:01:55.643Z,31968
2016-08-01T08:02:55.681Z,33280
2016-08-01T08:03:55.744Z,32480
2016-08-01T08:04:54.380Z,28928
2016-08-01T08:05:55.107Z,29056
2016-08-01T08:06:56.072Z,26560
2016-08-01T08:07:55.231Z,25888
2016-08-01T08:08:55.256Z,27232
2016-08-01T08:09:56.018Z,28128
2016-08-01T08:10:55.360Z,27264
2016-08-01T08:11:55.409Z,31104
2016-08-01T08:12:56.153Z,30912
2016-08-01T08:13:56.217Z,39200
2016-08-01T08:14:55.512Z,34656
2016-08-01T08:15:56.448Z,40480
2016-08-01T08:16:55.623Z,45024
2016-08-01T08:17:56.410Z,39968
2016-08-01T08:18:56.440Z,34784
2016-08-01T08:19:55.769Z,39200
2016-08-01T08:20:56.777Z,35424
2016-08-01T08:21:56.576Z,43488
2016-08-01T08:22:56.617Z,40160
2016-08-01T08:23:55.947Z,44640
2016-08-01T08:24:56.708Z,38560
2016-08-01T08:25:56.747Z,37728
2016-08-01T08:26:56.095Z,34240
2016-08-01T08:27:56.834Z,37248
2016-08-01T08:28:56.869Z,42656
2016-08-01T08:29:56.256Z,43168
2016-08-01T08:30:56.283Z,43776
2016-08-01T08:31:56.506Z,44864
2016-08-01T08:32:57.086Z,53856
2016-08-01T08:33:57.122Z,49024
2016-08-01T08:34:56.456Z,53024
2016-08-01T08:35:56.509Z,60096
2016-08-01T08:36:57.288Z,66592
2016-08-01T08:37:57.331Z,63200
2016-08-01T08:38:55.948Z,61184
2016-08-01T08:39:56.733Z,71552
2016-08-01T08:40:57.456Z,70656
2016-08-01T08:41:57.503Z,68832
2016-08-01T08:42:56.847Z,68640
2016-08-01T08:43:57.608Z,73920
2016-08-01T08:44:57.603Z,74688
2016-08-01T08:45:56.991Z,73312
2016-08-01T08:46:57.727Z,78208
2016-08-01T08:47:57.044Z,80096
2016-08-01T08:48:57.138Z,78976
2016-08-01T08:49:57.887Z,74112
2016-08-01T08:50:57.201Z,63392
2016-08-01T08:51:57.260Z,71040
2016-08-01T08:52:58.017Z,71136
2016-08-01T08:53:58.061Z,61408
2016-08-01T08:54:58.096Z,57440
2016-08-01T08:55:57.473Z,57280
2016-08-01T08:56:58.185Z,60352
2016-08-01T08:57:58.233Z,64704
2016-08-01T08:58:57.589Z,65280
2016-08-01T08:59:57.671Z,66304
2016-08-01T09:00:58.398Z,87872
2016-08-01T09:01:58.425Z,89600
2016-08-01T09:02:57.809Z,87072
2016-08-01T09:03:58.790Z,67264
2016-08-01T09:04:58.537Z,76352
2016-08-01T09:05:58.630Z,81216
2016-08-01T09:06:57.961Z,67936
2016-08-01T09:07:58.685Z,70592
2016-08-01T09:08:58.035Z,69664
2016-08-01T09:09:58.114Z,83328
2016-08-01T09:10:58.886Z,56512
2016-08-01T09:11:58.215Z,73088
2016-08-01T09:12:58.953Z,63904
2016-08-01T09:13:59.020Z,69152
2016-08-01T09:14:58.332Z,59232
2016-08-01T09:15:59.102Z,73280
2016-08-01T09:16:59.141Z,102976
2016-08-01T09:17:57.809Z,76384
2016-08-01T09:18:59.241Z,71776
2016-08-01T09:19:58.564Z,85120
2016-08-01T09:20:59.320Z,100352
2016-08-01T09:21:59.382Z,55424
2016-08-01T09:22:57.984Z,72640
2016-08-01T09:23:59.452Z,63392
2016-08-01T09:24:59.498Z,61696
2016-08-01T09:25:59.567Z,85152
2016-08-01T09:26:59.614Z,110208
2016-08-01T09:27:59.639Z,105184
2016-08-01T09:28:59.720Z,95552
2016-08-01T09:29:59.061Z,119200
2016-08-01T09:30:59.059Z,102592
2016-08-01T09:31:58.459Z,118656
2016-08-01T09:32:59.177Z,85792
2016-08-01T09:33:59.227Z,77952
2016-08-01T09:34:59.261Z,90176
2016-08-01T09:36:00.024Z,106368
2016-08-01T09:36:57.963Z,123488
2016-08-01T09:38:00.078Z,166816
2016-08-01T09:38:59.458Z,81792
2016-08-01T09:39:59.470Z,87744
2016-08-01T09:40:59.525Z,85728
2016-08-01T09:42:00.298Z,113536
2016-08-01T09:43:00.373Z,85280
2016-08-01T09:44:00.438Z,102272
2016-08-01T09:44:59.072Z,64128
2016-08-01T09:46:00.489Z,78496
2016-08-01T09:46:59.165Z,75008
2016-08-01T09:47:59.896Z,58656
2016-08-01T09:49:00.660Z,61536
2016-08-01T09:50:00.665Z,90848
2016-08-01T09:51:00.010Z,87904
2016-08-01T09:52:00.767Z,92768
2016-08-01T09:53:00.835Z,99936
2016-08-01T09:54:00.885Z,77312
2016-08-01T09:55:00.240Z,72320
2016-08-01T09:56:00.294Z,88160
2016-08-01T09:57:01.031Z,66880
2016-08-01T09:58:01.045Z,57792
2016-08-01T09:59:01.080Z,57056
2016-08-01T10:00:00.478Z,50848
2016-08-01T10:01:00.482Z,52384
2016-08-01T10:02:01.269Z,46432
2016-08-01T10:03:01.291Z,44448
2016-08-01T10:04:01.372Z,40576
2016-08-01T10:05:01.400Z,37216
2016-08-01T10:06:01.449Z,39008
2016-08-01T10:07:00.793Z,41856
2016-08-01T10:08:01.766Z,38560
2016-08-01T10:09:01.564Z,37952
2016-08-01T10:10:01.602Z,35552
2016-08-01T10:11:01.678Z,30848
2016-08-01T10:12:01.743Z,29568
2016-08-01T10:13:01.085Z,27328
2016-08-01T10:14:01.830Z,26688
2016-08-01T10:15:01.885Z,27584
2016-08-01T10:16:01.317Z,28352
2016-08-01T10:17:01.959Z,28576
2016-08-01T10:18:01.588Z,29472
2016-08-01T10:19:02.021Z,30464
2016-08-01T10:20:02.119Z,32032
2016-08-01T10:21:02.170Z,31552
2016-08-01T10:22:02.194Z,26592
2016-08-01T10:23:01.537Z,29696
2016-08-01T10:24:02.319Z,36928
2016-08-01T10:25:02.356Z,38048
2016-08-01T10:26:01.715Z,34464
2016-08-01T10:27:02.434Z,37824
2016-08-01T10:28:02.504Z,39776
2016-08-01T10:29:01.853Z,42304
2016-08-01T10:30:02.787Z,40800
2016-08-01T10:31:02.659Z,38400
2016-08-01T10:32:02.691Z,33216
2016-08-01T10:33:01.990Z,32064
2016-08-01T10:34:02.756Z,35200
2016-08-01T10:35:02.107Z,38816
2016-08-01T10:36:02.139Z,40608
2016-08-01T10:37:02.906Z,37088
2016-08-01T10:38:02.967Z,35360
2016-08-01T10:39:02.306Z,37504
2016-08-01T10:40:03.096Z,38144
2016-08-01T10:41:03.128Z,43904
2016-08-01T10:42:02.431Z,38688
2016-08-01T10:43:01.797Z,35136
2016-08-01T10:44:02.546Z,30688
2016-08-01T10:45:02.613Z,30048
2016-08-01T10:46:02.610Z,30496
2016-08-01T10:47:03.359Z,29984
2016-08-01T10:48:02.701Z,30688
2016-08-01T10:49:03.430Z,39040
2016-08-01T10:50:03.528Z,42688
2016-08-01T10:51:03.569Z,39424
2016-08-01T10:52:02.923Z,38880
2016-08-01T10:53:02.968Z,35040
2016-08-01T10:54:03.722Z,35456
2016-08-01T10:55:03.063Z,37760
2016-08-01T10:56:03.120Z,38656
2016-08-01T10:57:03.335Z,34624
2016-08-01T10:58:02.507Z,32160
2016-08-01T10:59:03.922Z,36096
2016-08-01T11:00:03.988Z,35808
2016-08-01T11:01:04.033Z,35776
2016-08-01T11:02:03.398Z,40224
2016-08-01T11:03:03.440Z,41120
2016-08-01T11:04:04.199Z,42944
2016-08-01T11:05:03.508Z,43968
2016-08-01T11:06:03.567Z,47488
2016-08-01T11:07:03.607Z,51968
2016-08-01T11:08:04.584Z,52736
2016-08-01T11:09:04.432Z,55040
2016-08-01T11:10:02.344Z,55168
2016-08-01T11:11:04.476Z,51328
2016-08-01T11:12:03.841Z,54144
2016-08-01T11:13:04.602Z,50112
2016-08-01T11:14:04.629Z,40384
2016-08-01T11:15:04.699Z,41088
2016-08-01T11:16:04.738Z,40768
2016-08-01T11:17:04.784Z,43296
2016-08-01T11:18:04.862Z,45024
2016-08-01T11:19:04.188Z,44800
2016-08-01T11:20:05.121Z,47680
2016-08-01T11:21:05.135Z,46016
2016-08-01T11:22:04.346Z,41504
2016-08-01T11:23:05.098Z,36768
2016-08-01T11:24:04.393Z,32800
2016-08-01T11:25:05.155Z,30112
2016-08-01T11:26:05.206Z,29696
2016-08-01T11:27:05.256Z,29408
2016-08-01T11:28:04.580Z,27616
2016-08-01T11:29:05.366Z,24160
2016-08-01T11:30:04.658Z,24704
2016-08-01T11:31:04.771Z,25728
2016-08-01T11:32:04.775Z,25760
2016-08-01T11:33:05.044Z,28640
2016-08-01T11:34:05.765Z,30304
2016-08-01T11:35:05.726Z,28736
2016-08-01T11:36:05.635Z,26560
2016-08-01T11:37:04.991Z,28608
2016-08-01T11:38:05.083Z,33504
2016-08-01T11:39:05.801Z,33248
2016-08-01T11:40:05.164Z,32448
2016-08-01T11:41:05.225Z,29952
2016-08-01T11:42:05.971Z,29952
2016-08-01T11:43:06.011Z,29600
2016-08-01T11:44:04.659Z,28032
2016-08-01T11:45:06.478Z,29664
2016-08-01T11:46:06.149Z,32896
2016-08-01T11:47:05.451Z,32576
2016-08-01T11:48:06.227Z,31200
2016-08-01T11:49:06.288Z,31552
2016-08-01T11:50:05.721Z,33696
2016-08-01T11:51:06.369Z,35232
2016-08-01T11:52:05.694Z,36800
2016-08-01T11:53:06.468Z,37216
2016-08-01T11:54:06.507Z,36384
2016-08-01T11:55:05.913Z,34496
2016-08-01T11:56:06.619Z,31136
2016-08-01T11:57:06.868Z,30240
2016-08-01T11:58:06.014Z,32288
2016-08-01T11:59:06.033Z,35360
2016-08-01T12:00:06.997Z,35584
2016-08-01T12:01:06.109Z,32000
2016-08-01T12:02:06.901Z,31200
2016-08-01T12:03:06.918Z,32288
2016-08-01T12:04:06.280Z,33408
2016-08-01T12:05:07.046Z,35520
2016-08-01T12:06:07.086Z,37408
2016-08-01T12:07:06.412Z,37536
2016-08-01T12:08:05.767Z,34912
2016-08-01T12:09:07.231Z,34880
2016-08-01T12:10:06.804Z,37536
2016-08-01T12:11:05.913Z,37216
2016-08-01T12:12:07.377Z,39104
2016-08-01T12:13:06.678Z,42656
2016-08-01T12:14:06.751Z,48800
2016-08-01T12:15:06.167Z,46272
2016-08-01T12:16:07.558Z,38880
2016-08-01T12:17:07.606Z,34208
2016-08-01T12:18:07.657Z,32032
2016-08-01T12:19:07.693Z,32000
2016-08-01T12:20:07.782Z,34592
2016-08-01T12:22:08.076Z,42368
2016-08-01T12:23:08.088Z,46656
2016-08-01T12:24:06.523Z,47872
2016-08-01T12:25:08.145Z,45536
2016-08-01T12:26:08.003Z,43424
2016-08-01T12:27:08.030Z,40672
2016-08-01T12:28:08.066Z,38208
2016-08-01T12:29:08.125Z,37664
2016-08-01T12:30:08.227Z,42208
2016-08-01T12:31:08.670Z,43616
2016-08-01T12:32:07.627Z,42112
2016-08-01T12:33:07.644Z,39808
2016-08-01T12:34:07.014Z,39296
2016-08-01T12:35:09.028Z,41344
2016-08-01T12:37:08.514Z,41728
2016-08-01T12:38:08.582Z,43776
2016-08-01T12:39:07.932Z,73408
2016-08-01T12:40:08.803Z,78016
2016-08-01T12:41:08.744Z,68992
2016-08-01T12:42:08.741Z,64928
2016-08-01T12:43:08.780Z,46368
2016-08-01T12:44:08.189Z,50592
2016-08-01T12:45:09.213Z,56032
2016-08-01T12:46:09.124Z,45472
2016-08-01T12:47:09.183Z,33216
2016-08-01T12:48:09.226Z,32192
2016-08-01T12:49:08.568Z,34144
2016-08-01T12:50:09.122Z,33600
2016-08-01T12:51:09.196Z,32992
2016-08-01T12:52:08.553Z,30752
2016-08-01T12:53:09.259Z,27968
2016-08-01T12:54:09.326Z,24640
2016-08-01T12:55:09.356Z,24768
2016-08-01T12:56:09.399Z,26304
2016-08-01T12:57:08.077Z,28448
2016-08-01T12:58:09.509Z,28896
2016-08-01T12:59:09.816Z,27008
2016-08-01T13:00:09.947Z,29472
2016-08-01T13:01:09.643Z,28896
2016-08-01T13:02:09.004Z,27168
2016-08-01T13:03:09.055Z,31104
2016-08-01T13:04:09.757Z,33056
2016-08-01T13:05:09.834Z,27648
2016-08-01T13:06:09.892Z,26208
2016-08-01T13:07:09.941Z,28192
2016-08-01T13:08:10.018Z,29024
2016-08-01T13:09:09.990Z,31904
2016-08-01T13:10:10.088Z,33344
2016-08-01T13:11:09.415Z,31744
2016-08-01T13:12:09.442Z,35296
2016-08-01T13:13:10.414Z,30784
2016-08-01T13:14:10.237Z,29248
2016-08-01T13:15:10.327Z,30016
2016-08-01T13:16:09.871Z,35040
2016-08-01T13:17:10.420Z,29888
2016-08-01T13:18:09.742Z,32000
2016-08-01T13:19:10.488Z,39712
2016-08-01T13:20:09.905Z,48352
2016-08-01T13:21:10.564Z,46784
2016-08-01T13:22:10.613Z,47456
2016-08-01T13:23:09.978Z,43712
2016-08-01T13:24:10.915Z,41792
2016-08-01T13:25:10.360Z,38720
2016-08-01T13:26:10.793Z,35936
2016-08-01T13:27:10.868Z,38016
2016-08-01T13:28:10.930Z,29312
2016-08-01T13:29:10.986Z,27904
2016-08-01T13:30:10.297Z,27008
2016-08-01T13:31:11.060Z,30016
2016-08-01T13:32:11.097Z,32288
2016-08-01T13:33:10.431Z,41472
2016-08-01T13:34:10.478Z,32544
2016-08-01T13:35:11.405Z,36000
2016-08-01T13:36:11.498Z,35680
2016-08-01T13:37:10.123Z,36256
2016-08-01T13:38:11.336Z,32448
2016-08-01T13:39:11.501Z,29088
2016-08-01T13:40:11.737Z,26432
2016-08-01T13:41:10.808Z,24832
2016-08-01T13:42:10.883Z,25280
2016-08-01T13:43:11.599Z,28416
2016-08-01T13:44:11.642Z,33120
2016-08-01T13:45:12.144Z,30240
2016-08-01T13:46:10.364Z,28416
2016-08-01T13:47:11.817Z,25280
2016-08-01T13:48:12.064Z,26080
2016-08-01T13:49:11.182Z,33056
2016-08-01T13:50:11.613Z,28032
2016-08-01T13:51:12.007Z,25248
2016-08-01T13:52:11.323Z,24544
2016-08-01T13:53:12.082Z,35904
2016-08-01T13:54:11.426Z,32320
2016-08-01T13:55:11.537Z,35328
2016-08-01T13:56:12.186Z,32672
2016-08-01T13:57:12.250Z,29664
2016-08-01T13:58:12.307Z,28768
2016-08-01T13:59:11.654Z,25888
2016-08-01T14:00:12.009Z,24672
2016-08-01T14:01:12.637Z,24640
2016-08-01T14:02:12.690Z,22816
2016-08-01T14:03:12.549Z,19072
2016-08-01T14:04:11.175Z,16976
2016-08-01T14:05:12.646Z,17728
2016-08-01T14:06:12.000Z,18240
2016-08-01T14:07:12.029Z,19968
2016-08-01T14:08:12.792Z,20192
2016-08-01T14:09:12.102Z,19264
2016-08-01T14:10:12.168Z,17524
2016-08-01T14:11:12.211Z,17136
2016-08-01T14:12:12.964Z,17284
2016-08-01T14:13:13.232Z,19296
2016-08-01T14:14:13.239Z,25312
2016-08-01T14:15:13.099Z,32800
2016-08-01T14:16:12.436Z,33856
2016-08-01T14:17:13.177Z,35424
2016-08-01T14:18:12.532Z,28096
2016-08-01T14:19:12.609Z,26528
2016-08-01T14:20:12.645Z,27872
2016-08-01T14:21:13.369Z,30464
2016-08-01T14:22:13.430Z,33568
2016-08-01T14:23:13.468Z,28672
2016-08-01T14:24:11.415Z,24672
2016-08-01T14:25:13.596Z,23360
2016-08-01T14:26:13.605Z,23680
2016-08-01T14:27:12.980Z,20704
2016-08-01T14:28:13.689Z,23552
2016-08-01T14:29:13.062Z,27328
2016-08-01T14:30:13.825Z,26368
2016-08-01T14:31:13.839Z,33824
2016-08-01T14:32:13.164Z,37856
2016-08-01T14:33:13.953Z,36288
2016-08-01T14:34:14.053Z,39552
2016-08-01T14:35:14.370Z,27456
2016-08-01T14:36:14.051Z,22656
2016-08-01T14:37:14.082Z,22720
2016-08-01T14:38:13.471Z,23136
2016-08-01T14:39:13.499Z,20480
2016-08-01T14:40:13.864Z,18464
2016-08-01T14:41:14.303Z,20256
2016-08-01T14:42:13.686Z,23040
2016-08-01T14:43:14.389Z,20672
2016-08-01T14:44:14.461Z,21728
2016-08-01T14:45:13.951Z,22656
2016-08-01T14:46:13.843Z,25664
2016-08-01T14:47:13.152Z,24672
2016-08-01T14:48:14.627Z,23552
2016-08-01T14:49:14.673Z,21536
2016-08-01T14:50:15.253Z,22784
2016-08-01T14:51:13.578Z,22272
2016-08-01T14:52:14.606Z,21152
2016-08-01T14:53:14.131Z,21504
2016-08-01T14:54:14.928Z,18240
2016-08-01T14:55:14.920Z,17984
2016-08-01T14:56:14.315Z,17984
2016-08-01T14:57:15.074Z,15000
2016-08-01T14:58:15.073Z,18272
2016-08-01T14:59:15.134Z,19776
2016-08-01T15:00:15.333Z,24352
2016-08-01T15:01:15.193Z,23328
2016-08-01T15:02:14.777Z,18624
2016-08-01T15:03:15.295Z,18080
2016-08-01T15:04:15.386Z,17384
2016-08-01T15:05:14.695Z,17244
2016-08-01T15:06:15.446Z,14520
2016-08-01T15:07:14.783Z,14176
2016-08-01T15:08:15.529Z,13644
2016-08-01T15:09:15.565Z,14144
2016-08-01T22:27:01.838Z,0
2016-08-01T22:28:00.785Z,0
2016-08-01T22:29:01.509Z,0
2016-08-01T22:30:01.552Z,0
2016-08-01T22:31:01.806Z,0
2016-08-01T22:32:01.827Z,0
2016-08-01T22:33:01.661Z,0
2016-08-01T22:34:01.723Z,0
2016-08-01T22:35:01.787Z,0
2016-08-01T22:36:01.828Z,0
2016-08-01T22:37:01.861Z,0
2016-08-01T22:38:01.178Z,0
2016-08-01T22:39:01.950Z,0
2016-08-01T22:40:01.999Z,0
2016-08-01T22:41:02.040Z,0
2016-08-01T22:42:02.074Z,0
2016-08-01T22:43:16.009Z,0
2016-08-01T22:44:01.683Z,0
2016-08-01T22:45:02.212Z,0
2016-08-01T22:46:02.279Z,0
2016-08-01T22:47:00.896Z,0
2016-08-01T22:48:02.328Z,0
2016-08-01T22:49:02.399Z,0
2016-08-01T22:50:02.427Z,0
2016-08-01T22:51:02.499Z,0
2016-08-01T22:52:02.520Z,0
2016-08-01T22:53:02.608Z,0
2016-08-01T22:54:01.933Z,0
2016-08-01T22:55:02.682Z,0
2016-08-01T22:56:02.728Z,0
2016-08-01T22:57:02.750Z,0
2016-08-01T22:58:02.791Z,0
2016-08-01T22:59:02.160Z,0
2016-08-01T23:00:02.231Z,0
2016-08-01T23:01:02.253Z,0
2016-08-01T23:02:02.995Z,0
2016-08-01T23:03:03.035Z,0
2016-08-01T23:04:03.075Z,0
2016-08-01T23:05:02.441Z,0
2016-08-01T23:06:03.203Z,0
2016-08-01T23:07:03.445Z,0
2016-08-01T23:08:03.501Z,0
2016-08-01T23:09:03.340Z,0
2016-08-01T23:10:01.981Z,0
2016-08-01T23:11:03.414Z,0
2016-08-01T23:12:03.488Z,0
2016-08-01T23:13:02.809Z,0
2016-08-01T23:14:03.560Z,0
2016-08-01T23:15:03.609Z,0
2016-08-01T23:16:03.665Z,0
2016-08-01T23:17:03.012Z,0
2016-08-01T23:18:03.730Z,0
2016-08-01T23:19:03.979Z,0
2016-08-01T23:20:04.031Z,0
2016-08-01T23:21:03.188Z,0
2016-08-01T23:22:03.904Z,0
2016-08-01T23:23:03.272Z,0
2016-08-01T23:24:03.341Z,0
2016-08-01T23:25:04.088Z,0
2016-08-01T23:26:04.087Z,0
2016-08-01T23:27:04.153Z,0
2016-08-01T23:28:04.204Z,0
2016-08-01T23:29:04.221Z,0
2016-08-01T23:30:04.304Z,0
2016-08-01T23:31:03.632Z,0
2016-08-01T23:32:04.374Z,0
2016-08-01T23:33:04.420Z,0
2016-08-01T23:34:03.753Z,0
2016-08-01T23:35:03.836Z,0
2016-08-01T23:36:04.564Z,0
2016-08-01T23:37:04.624Z,0
2016-08-01T23:38:03.941Z,0
2016-08-01T23:39:04.674Z,0
2016-08-01T23:40:04.770Z,0
2016-08-01T23:41:04.068Z,0
2016-08-01T23:42:04.833Z,0
2016-08-01T23:43:04.880Z,0
2016-08-01T23:44:04.234Z,0
2016-08-01T23:45:04.981Z,0
2016-08-01T23:46:05.016Z,0
2016-08-01T23:47:05.065Z,0
2016-08-01T23:48:04.412Z,0
2016-08-01T23:49:05.193Z,0
2016-08-01T23:50:05.265Z,0
2016-08-01T23:51:05.251Z,0
2016-08-01T23:52:04.605Z,0
2016-08-01T23:53:05.364Z,0
2016-08-01T23:54:05.395Z,0
2016-08-01T23:55:05.505Z,0
2016-08-01T23:56:33.904Z,0
2016-08-01T23:57:05.548Z,0
2016-08-01T23:58:05.550Z,0
2016-08-01T23:59:05.640Z,0
